sensor_id;sensor_type;location;lat;lon;timestamp;pressure;altitude;pressure_sealevel;temperature;humidity
15477;BME280;7840;42.702;23.296;2022-11-13T00:00:24;96426.91;;;9.07;100.00
15477;BME280;7840;42.702;23.296;2022-11-13T00:02:52;96433.00;;;9.14;100.00
15477;BME280;7840;42.702;23.296;2022-11-13T00:05:20;96434.84;;;9.07;100.00
15477;BME280;7840;42.702;23.296;2022-11-13T00:07:51;96429.72;;;8.99;100.00
15477;BME280;7840;42.702;23.296;2022-11-13T00:10:20;96432.19;;;8.94;100.00
15477;BME280;7840;42.702;23.296;2022-11-13T00:13:05;96422.81;;;8.98;100.00
15477;BME280;7840;42.702;23.296;2022-11-13T00:15:33;96427.72;;;9.01;100.00
15477;BME280;7840;42.702;23.296;2022-11-13T00:18:04;96427.72;;;8.94;100.00
15477;BME280;7840;42.702;23.296;2022-11-13T00:20:31;96422.00;;;8.91;100.00
15477;BME280;7840;42.702;23.296;2022-11-13T00:23:01;96424.44;;;8.99;100.00
15477;BME280;7840;42.702;23.296;2022-11-13T00:25:41;96416.72;;;9.04;100.00
15477;BME280;7840;42.702;23.296;2022-11-13T00:28:16;96420.00;;;9.06;100.00
15477;BME280;7840;42.702;23.296;2022-11-13T00:30:44;96417.13;;;9.01;100.00
15477;BME280;7840;42.702;23.296;2022-11-13T00:33:12;96422.44;;;9.01;100.00
15477;BME280;7840;42.702;23.296;2022-11-13T00:35:40;96423.63;;;9.05;100.00
15477;BME280;7840;42.702;23.296;2022-11-13T00:38:07;96419.56;;;9.09;100.00
15477;BME280;7840;42.702;23.296;2022-11-13T00:40:35;96424.84;;;9.09;100.00
15477;BME280;7840;42.702;23.296;2022-11-13T00:43:08;96422.00;;;9.11;100.00
15477;BME280;7840;42.702;23.296;2022-11-13T00:45:37;96415.31;;;9.21;100.00
15477;BME280;7840;42.702;23.296;2022-11-13T00:48:09;96413.84;;;9.25;100.00
15477;BME280;7840;42.702;23.296;2022-11-13T00:50:39;96410.63;;;9.23;100.00
15477;BME280;7840;42.702;23.296;2022-11-13T00:53:06;96411.84;;;9.14;100.00
15477;BME280;7840;42.702;23.296;2022-11-13T00:55:49;96415.31;;;9.15;100.00
15477;BME280;7840;42.702;23.296;2022-11-13T00:58:18;96417.75;;;8.96;100.00
15477;BME280;7840;42.702;23.296;2022-11-13T01:00:47;96410.22;;;9.07;100.00
15477;BME280;7840;42.702;23.296;2022-11-13T01:03:18;96411.63;;;9.22;100.00
15477;BME280;7840;42.702;23.296;2022-11-13T01:05:46;96409.00;;;9.22;100.00
15477;BME280;7840;42.702;23.296;2022-11-13T01:08:15;96406.75;;;9.19;100.00
15477;BME280;7840;42.702;23.296;2022-11-13T01:10:45;96403.28;;;9.25;100.00
15477;BME280;7840;42.702;23.296;2022-11-13T01:13:18;96406.94;;;9.24;100.00
15477;BME280;7840;42.702;23.296;2022-11-13T01:18:42;96410.84;;;9.09;100.00
15477;BME280;7840;42.702;23.296;2022-11-13T01:21:11;96413.47;;;9.15;100.00
15477;BME280;7840;42.702;23.296;2022-11-13T01:23:46;96408.19;;;9.15;100.00
15477;BME280;7840;42.702;23.296;2022-11-13T01:26:29;96410.63;;;9.10;100.00
15477;BME280;7840;42.702;23.296;2022-11-13T01:29:02;96402.91;;;9.09;100.00
15477;BME280;7840;42.702;23.296;2022-11-13T01:31:32;96403.13;;;9.00;100.00
15477;BME280;7840;42.702;23.296;2022-11-13T01:34:00;96403.28;;;8.99;100.00
15477;BME280;7840;42.702;23.296;2022-11-13T01:36:29;96398.84;;;9.06;100.00
15477;BME280;7840;42.702;23.296;2022-11-13T01:38:58;96404.13;;;9.06;100.00
15477;BME280;7840;42.702;23.296;2022-11-13T01:41:31;96395.19;;;8.94;100.00
15477;BME280;7840;42.702;23.296;2022-11-13T01:44:01;96390.28;;;8.97;100.00
15477;BME280;7840;42.702;23.296;2022-11-13T01:46:30;96390.28;;;8.97;100.00
15477;BME280;7840;42.702;23.296;2022-11-13T01:49:11;96376.47;;;9.02;100.00
15477;BME280;7840;42.702;23.296;2022-11-13T01:51:46;96384.19;;;8.97;100.00
15477;BME280;7840;42.702;23.296;2022-11-13T01:54:18;96383.38;;;9.03;100.00
15477;BME280;7840;42.702;23.296;2022-11-13T01:56:48;96384.78;;;9.12;100.00
15477;BME280;7840;42.702;23.296;2022-11-13T01:59:23;96379.72;;;9.17;100.00
15477;BME280;7840;42.702;23.296;2022-11-13T02:01:53;96380.94;;;9.15;100.00
15477;BME280;7840;42.702;23.296;2022-11-13T02:04:22;96386.63;;;9.05;100.00
15477;BME280;7840;42.702;23.296;2022-11-13T02:06:53;96385.00;;;9.11;100.00
15477;BME280;7840;42.702;23.296;2022-11-13T02:09:29;96384.59;;;9.20;100.00
15477;BME280;7840;42.702;23.296;2022-11-13T02:11:58;96394.53;;;9.18;100.00
15477;BME280;7840;42.702;23.296;2022-11-13T02:14:28;96395.19;;;9.20;100.00
15477;BME280;7840;42.702;23.296;2022-11-13T02:16:59;96393.94;;;9.10;100.00
15477;BME280;7840;42.702;23.296;2022-11-13T02:19:30;96389.88;;;9.20;100.00
15477;BME280;7840;42.702;23.296;2022-11-13T02:22:06;96385.81;;;9.11;100.00
15477;BME280;7840;42.702;23.296;2022-11-13T02:24:40;96394.38;;;9.13;100.00
15477;BME280;7840;42.702;23.296;2022-11-13T02:27:12;96381.75;;;9.02;100.00
15477;BME280;7840;42.702;23.296;2022-11-13T02:29:42;96387.25;;;9.07;100.00
15477;BME280;7840;42.702;23.296;2022-11-13T02:32:09;96382.38;;;9.04;100.00
15477;BME280;7840;42.702;23.296;2022-11-13T02:34:37;96387.84;;;9.09;100.00
15477;BME280;7840;42.702;23.296;2022-11-13T02:37:05;96385.41;;;9.08;100.00
15477;BME280;7840;42.702;23.296;2022-11-13T02:39:32;96378.09;;;8.96;100.00
15477;BME280;7840;42.702;23.296;2022-11-13T02:42:02;96378.53;;;9.00;100.00
15477;BME280;7840;42.702;23.296;2022-11-13T02:44:30;96370.75;;;9.05;100.00
15477;BME280;7840;42.702;23.296;2022-11-13T02:46:57;96373.22;;;9.07;100.00
15477;BME280;7840;42.702;23.296;2022-11-13T02:49:25;96376.88;;;8.99;100.00
15477;BME280;7840;42.702;23.296;2022-11-13T02:51:53;96375.88;;;9.00;100.00
15477;BME280;7840;42.702;23.296;2022-11-13T02:54:23;96379.72;;;9.04;100.00
15477;BME280;7840;42.702;23.296;2022-11-13T02:57:12;96377.50;;;9.08;100.00
15477;BME280;7840;42.702;23.296;2022-11-13T02:59:42;96383.00;;;9.13;100.00
15477;BME280;7840;42.702;23.296;2022-11-13T03:02:10;96378.50;;;9.13;100.00
15477;BME280;7840;42.702;23.296;2022-11-13T03:04:38;96389.91;;;9.07;100.00
15477;BME280;7840;42.702;23.296;2022-11-13T03:07:06;96378.50;;;9.13;100.00
15477;BME280;7840;42.702;23.296;2022-11-13T03:09:33;96383.38;;;9.03;100.00
15477;BME280;7840;42.702;23.296;2022-11-13T03:12:01;96380.34;;;9.06;100.00
15477;BME280;7840;42.702;23.296;2022-11-13T03:14:30;96378.53;;;9.00;100.00
15477;BME280;7840;42.702;23.296;2022-11-13T03:16:58;96382.56;;;9.09;100.00
15477;BME280;7840;42.702;23.296;2022-11-13T03:19:26;96380.13;;;9.01;100.00
15477;BME280;7840;42.702;23.296;2022-11-13T03:21:54;96385.00;;;9.04;100.00
15477;BME280;7840;42.702;23.296;2022-11-13T03:24:22;96380.13;;;9.08;100.00
15477;BME280;7840;42.702;23.296;2022-11-13T03:26:50;96390.28;;;9.17;100.00
15477;BME280;7840;42.702;23.296;2022-11-13T03:29:18;96379.72;;;9.17;100.00
15477;BME280;7840;42.702;23.296;2022-11-13T03:31:47;96386.44;;;9.26;100.00
15477;BME280;7840;42.702;23.296;2022-11-13T03:34:15;96380.94;;;9.28;100.00
15477;BME280;7840;42.702;23.296;2022-11-13T03:36:43;96390.47;;;9.36;100.00
15477;BME280;7840;42.702;23.296;2022-11-13T03:39:11;96378.47;;;9.33;100.00
15477;BME280;7840;42.702;23.296;2022-11-13T03:41:39;96384.59;;;9.34;100.00
15477;BME280;7840;42.702;23.296;2022-11-13T03:44:13;96389.03;;;9.40;100.00
15477;BME280;7840;42.702;23.296;2022-11-13T03:46:43;96391.47;;;9.48;100.00
15477;BME280;7840;42.702;23.296;2022-11-13T03:49:12;96397.56;;;9.48;100.00
15477;BME280;7840;42.702;23.296;2022-11-13T03:51:40;96391.66;;;9.53;100.00
15477;BME280;7840;42.702;23.296;2022-11-13T03:54:11;96386.16;;;9.61;100.00
15477;BME280;7840;42.702;23.296;2022-11-13T03:56:38;96388.63;;;9.49;100.00
15477;BME280;7840;42.702;23.296;2022-11-13T03:59:06;96381.06;;;9.53;100.00
15477;BME280;7840;42.702;23.296;2022-11-13T04:01:35;96389.44;;;9.50;100.00
15477;BME280;7840;42.702;23.296;2022-11-13T04:04:12;96391.03;;;9.57;100.00
15477;BME280;7840;42.702;23.296;2022-11-13T04:06:40;96396.34;;;9.51;100.00
15477;BME280;7840;42.702;23.296;2022-11-13T04:09:08;96388.59;;;9.56;100.00
15477;BME280;7840;42.702;23.296;2022-11-13T04:11:36;96399.38;;;9.61;100.00
15477;BME280;7840;42.702;23.296;2022-11-13T04:14:04;96395.28;;;9.65;100.00
15477;BME280;7840;42.702;23.296;2022-11-13T04:16:46;96386.16;;;9.61;100.00
15477;BME280;7840;42.702;23.296;2022-11-13T04:19:18;96388.59;;;9.63;100.00
15477;BME280;7840;42.702;23.296;2022-11-13T04:21:46;96390.00;;;9.65;100.00
15477;BME280;7840;42.702;23.296;2022-11-13T04:24:14;96384.31;;;9.62;100.00
15477;BME280;7840;42.702;23.296;2022-11-13T04:26:41;96383.50;;;9.61;100.00
15477;BME280;7840;42.702;23.296;2022-11-13T04:29:11;96387.16;;;9.53;100.00
15477;BME280;7840;42.702;23.296;2022-11-13T04:31:42;96378.41;;;9.53;100.00
15477;BME280;7840;42.702;23.296;2022-11-13T04:34:10;96385.34;;;9.54;100.00
15477;BME280;7840;42.702;23.296;2022-11-13T04:36:39;96381.69;;;9.55;100.00
15477;BME280;7840;42.702;23.296;2022-11-13T04:39:07;96380.91;;;9.48;100.00
15477;BME280;7840;42.702;23.296;2022-11-13T04:41:35;96385.75;;;9.51;100.00
15477;BME280;7840;42.702;23.296;2022-11-13T04:44:21;96379.22;;;9.53;100.00
15477;BME280;7840;42.702;23.296;2022-11-13T04:46:52;96378.84;;;9.50;100.00
15477;BME280;7840;42.702;23.296;2022-11-13T04:49:21;96376.41;;;9.55;100.00
15477;BME280;7840;42.702;23.296;2022-11-13T04:51:50;96385.75;;;9.57;100.00
15477;BME280;7840;42.702;23.296;2022-11-13T04:54:18;96381.47;;;9.63;100.00
15477;BME280;7840;42.702;23.296;2022-11-13T04:56:47;96388.16;;;9.59;100.00
15477;BME280;7840;42.702;23.296;2022-11-13T04:59:15;96387.38;;;9.58;100.00
15477;BME280;7840;42.702;23.296;2022-11-13T05:01:42;96390.66;;;9.54;100.00
15477;BME280;7840;42.702;23.296;2022-11-13T05:04:12;96393.47;;;9.59;100.00
15477;BME280;7840;42.702;23.296;2022-11-13T05:06:40;96389.41;;;9.63;100.00
15477;BME280;7840;42.702;23.296;2022-11-13T05:09:10;96383.31;;;9.56;100.00
15477;BME280;7840;42.702;23.296;2022-11-13T05:11:38;96385.97;;;9.56;100.00
15477;BME280;7840;42.702;23.296;2022-11-13T05:14:13;96393.69;;;9.51;100.00
15477;BME280;7840;42.702;23.296;2022-11-13T05:16:41;96386.56;;;9.58;100.00
15477;BME280;7840;42.702;23.296;2022-11-13T05:19:08;96391.84;;;9.58;100.00
15477;BME280;7840;42.702;23.296;2022-11-13T05:21:37;96389.41;;;9.63;100.00
15477;BME280;7840;42.702;23.296;2022-11-13T05:24:19;96391.00;;;9.64;100.00
15477;BME280;7840;42.702;23.296;2022-11-13T05:26:59;96393.91;;;9.56;100.00
15477;BME280;7840;42.702;23.296;2022-11-13T05:29:27;96397.56;;;9.55;100.00
15477;BME280;7840;42.702;23.296;2022-11-13T05:31:57;96396.72;;;9.61;100.00
15477;BME280;7840;42.702;23.296;2022-11-13T05:34:24;96399.56;;;9.66;100.00
15477;BME280;7840;42.702;23.296;2022-11-13T05:36:53;96402.63;;;9.63;100.00
15477;BME280;7840;42.702;23.296;2022-11-13T05:39:22;96402.00;;;9.68;100.00
15477;BME280;7840;42.702;23.296;2022-11-13T05:41:49;96406.66;;;9.72;100.00
15477;BME280;7840;42.702;23.296;2022-11-13T05:44:17;96409.72;;;9.69;100.00
15477;BME280;7840;42.702;23.296;2022-11-13T05:46:46;96413.38;;;9.75;100.00
15477;BME280;7840;42.702;23.296;2022-11-13T05:49:27;96421.91;;;9.77;100.00
15477;BME280;7840;42.702;23.296;2022-11-13T05:51:57;96414.00;;;9.70;100.00
15477;BME280;7840;42.702;23.296;2022-11-13T05:54:27;96411.38;;;9.64;100.00
15477;BME280;7840;42.702;23.296;2022-11-13T05:56:55;96410.94;;;9.73;100.00
15477;BME280;7840;42.702;23.296;2022-11-13T05:59:22;96420.91;;;9.71;100.00
15477;BME280;7840;42.702;23.296;2022-11-13T06:01:50;96418.25;;;9.71;100.00
15477;BME280;7840;42.702;23.296;2022-11-13T06:04:18;96417.03;;;9.74;100.00
15477;BME280;7840;42.702;23.296;2022-11-13T06:06:45;96425.97;;;9.79;100.00
15477;BME280;7840;42.702;23.296;2022-11-13T06:09:14;96413.53;;;9.86;100.00
15477;BME280;7840;42.702;23.296;2022-11-13T06:11:44;96427.38;;;9.89;100.00
15477;BME280;7840;42.702;23.296;2022-11-13T06:14:12;96425.94;;;9.93;100.00
15477;BME280;7840;42.702;23.296;2022-11-13T06:16:40;96425.16;;;9.85;100.00
15477;BME280;7840;42.702;23.296;2022-11-13T06:19:10;96433.31;;;9.77;100.00
15477;BME280;7840;42.702;23.296;2022-11-13T06:21:41;96437.34;;;9.86;100.00
15477;BME280;7840;42.702;23.296;2022-11-13T06:24:11;96422.09;;;9.89;100.00
15477;BME280;7840;42.702;23.296;2022-11-13T06:26:39;96419.84;;;9.85;100.00
15477;BME280;7840;42.702;23.296;2022-11-13T06:29:12;96431.03;;;9.87;100.00
15477;BME280;7840;42.702;23.296;2022-11-13T06:31:41;96431.81;;;9.95;100.00
15477;BME280;7840;42.702;23.296;2022-11-13T06:34:10;96438.16;;;9.94;100.00
15477;BME280;7840;42.702;23.296;2022-11-13T06:36:38;96434.47;;;9.95;100.00
15477;BME280;7840;42.702;23.296;2022-11-13T06:39:06;96437.75;;;9.97;100.00
15477;BME280;7840;42.702;23.296;2022-11-13T06:41:36;96435.69;;;9.99;100.00
15477;BME280;7840;42.702;23.296;2022-11-13T06:44:04;96436.28;;;10.01;100.00
15477;BME280;7840;42.702;23.296;2022-11-13T06:46:42;96423.06;;;10.01;100.00
15477;BME280;7840;42.702;23.296;2022-11-13T06:49:10;96429.31;;;10.13;100.00
15477;BME280;7840;42.702;23.296;2022-11-13T06:51:46;96425.69;;;10.07;100.00
15477;BME280;7840;42.702;23.296;2022-11-13T06:54:14;96424.66;;;10.08;100.00
15477;BME280;7840;42.702;23.296;2022-11-13T06:56:47;96422.59;;;10.17;100.00
15477;BME280;7840;42.702;23.296;2022-11-13T06:59:18;96435.66;;;10.12;100.00
15477;BME280;7840;42.702;23.296;2022-11-13T07:01:50;96430.69;;;10.22;100.00
15477;BME280;7840;42.702;23.296;2022-11-13T07:04:17;96422.38;;;10.19;100.00
15477;BME280;7840;42.702;23.296;2022-11-13T07:06:45;96438.66;;;10.22;100.00
15477;BME280;7840;42.702;23.296;2022-11-13T07:09:13;96427.06;;;10.30;100.00
15477;BME280;7840;42.702;23.296;2022-11-13T07:11:47;96432.13;;;10.31;100.00
15477;BME280;7840;42.702;23.296;2022-11-13T07:14:17;96429.84;;;10.41;100.00
15477;BME280;7840;42.702;23.296;2022-11-13T07:16:45;96449.41;;;10.40;100.00
15477;BME280;7840;42.702;23.296;2022-11-13T07:19:29;96436.56;;;10.44;100.00
15477;BME280;7840;42.702;23.296;2022-11-13T07:21:57;96443.41;;;10.58;100.00
15477;BME280;7840;42.702;23.296;2022-11-13T07:24:24;96451.72;;;10.62;100.00
15477;BME280;7840;42.702;23.296;2022-11-13T07:26:52;96447.28;;;10.56;100.00
15477;BME280;7840;42.702;23.296;2022-11-13T07:29:25;96440.00;;;10.51;100.00
15477;BME280;7840;42.702;23.296;2022-11-13T07:31:56;96435.72;;;10.50;100.00
15477;BME280;7840;42.702;23.296;2022-11-13T07:34:23;96439.78;;;10.53;100.00
15477;BME280;7840;42.702;23.296;2022-11-13T07:36:52;96430.59;;;10.49;100.00
15477;BME280;7840;42.702;23.296;2022-11-13T07:39:20;96433.69;;;10.46;100.00
15477;BME280;7840;42.702;23.296;2022-11-13T07:41:48;96446.94;;;10.46;100.00
15477;BME280;7840;42.702;23.296;2022-11-13T07:44:15;96442.81;;;10.50;100.00
15477;BME280;7840;42.702;23.296;2022-11-13T07:46:46;96445.28;;;10.51;100.00
15477;BME280;7840;42.702;23.296;2022-11-13T07:49:14;96449.94;;;10.56;100.00
15477;BME280;7840;42.702;23.296;2022-11-13T07:51:42;96443.19;;;10.60;100.00
15477;BME280;7840;42.702;23.296;2022-11-13T07:54:11;96452.97;;;10.59;100.00
15477;BME280;7840;42.702;23.296;2022-11-13T07:56:39;96449.53;;;10.59;100.00
15477;BME280;7840;42.702;23.296;2022-11-13T07:59:08;96447.72;;;10.53;100.00
15477;BME280;7840;42.702;23.296;2022-11-13T08:01:36;96448.75;;;10.52;100.00
15477;BME280;7840;42.702;23.296;2022-11-13T08:04:10;96445.47;;;10.50;100.00
15477;BME280;7840;42.702;23.296;2022-11-13T08:06:38;96452.34;;;10.64;100.00
15477;BME280;7840;42.702;23.296;2022-11-13T08:09:05;96448.81;;;10.70;100.00
15477;BME280;7840;42.702;23.296;2022-11-13T08:11:34;96449.22;;;10.74;100.00
15477;BME280;7840;42.702;23.296;2022-11-13T08:14:02;96445.28;;;10.83;100.00
15477;BME280;7840;42.702;23.296;2022-11-13T08:16:29;96449.19;;;10.80;100.00
15477;BME280;7840;42.702;23.296;2022-11-13T08:18:57;96446.06;;;10.90;100.00
15477;BME280;7840;42.702;23.296;2022-11-13T08:21:25;96444.47;;;10.82;100.00
15477;BME280;7840;42.702;23.296;2022-11-13T08:23:52;96437.56;;;10.81;100.00
15477;BME280;7840;42.702;23.296;2022-11-13T08:26:20;96444.38;;;10.95;100.00
15477;BME280;7840;42.702;23.296;2022-11-13T08:28:50;96438.50;;;10.93;100.00
15477;BME280;7840;42.702;23.296;2022-11-13T08:31:19;96444.59;;;10.94;100.00
15477;BME280;7840;42.702;23.296;2022-11-13T08:33:46;96447.38;;;11.06;100.00
15477;BME280;7840;42.702;23.296;2022-11-13T08:36:14;96447.13;;;11.14;100.00
15477;BME280;7840;42.702;23.296;2022-11-13T08:38:42;96446.53;;;11.12;100.00
15477;BME280;7840;42.702;23.296;2022-11-13T08:41:09;96449.91;;;10.94;100.00
15477;BME280;7840;42.702;23.296;2022-11-13T08:43:39;96445.69;;;11.11;100.00
15477;BME280;7840;42.702;23.296;2022-11-13T08:46:14;96454.34;;;11.00;100.00
15477;BME280;7840;42.702;23.296;2022-11-13T08:48:47;96457.66;;;10.95;100.00
15477;BME280;7840;42.702;23.296;2022-11-13T08:51:14;96456.34;;;11.05;100.00
15477;BME280;7840;42.702;23.296;2022-11-13T08:53:43;96466.44;;;10.89;100.00
15477;BME280;7840;42.702;23.296;2022-11-13T08:56:11;96465.41;;;10.90;100.00
15477;BME280;7840;42.702;23.296;2022-11-13T08:58:44;96465.84;;;10.87;100.00
15477;BME280;7840;42.702;23.296;2022-11-13T09:01:13;96466.44;;;10.89;100.00
15477;BME280;7840;42.702;23.296;2022-11-13T09:03:42;96461.66;;;11.05;100.00
15477;BME280;7840;42.702;23.296;2022-11-13T09:06:09;96467.56;;;11.07;100.00
15477;BME280;7840;42.702;23.296;2022-11-13T09:08:37;96471.84;;;11.08;100.00
15477;BME280;7840;42.702;23.296;2022-11-13T09:11:05;96459.13;;;11.16;100.00
15477;BME280;7840;42.702;23.296;2022-11-13T09:13:44;96464.47;;;11.10;100.00
15477;BME280;7840;42.702;23.296;2022-11-13T09:16:19;96461.72;;;11.23;100.00
15477;BME280;7840;42.702;23.296;2022-11-13T09:18:48;96461.72;;;11.23;100.00
15477;BME280;7840;42.702;23.296;2022-11-13T09:21:40;96466.00;;;11.24;100.00
15477;BME280;7840;42.702;23.296;2022-11-13T09:24:08;96465.13;;;11.30;100.00
15477;BME280;7840;42.702;23.296;2022-11-13T09:26:41;96460.53;;;11.44;100.00
15477;BME280;7840;42.702;23.296;2022-11-13T09:29:08;96471.09;;;11.50;100.00
15477;BME280;7840;42.702;23.296;2022-11-13T09:31:44;96460.47;;;11.50;100.00
15477;BME280;7840;42.702;23.296;2022-11-13T09:34:19;96461.63;;;11.61;100.00
15477;BME280;7840;42.702;23.296;2022-11-13T09:37:01;96453.03;;;11.84;100.00
15477;BME280;7840;42.702;23.296;2022-11-13T09:39:44;96444.28;;;12.02;100.00
15477;BME280;7840;42.702;23.296;2022-11-13T09:42:28;96444.47;;;12.00;100.00
15477;BME280;7840;42.702;23.296;2022-11-13T09:45:05;96446.78;;;12.15;100.00
15477;BME280;7840;42.702;23.296;2022-11-13T09:47:51;96441.44;;;12.33;98.30
15477;BME280;7840;42.702;23.296;2022-11-13T09:50:24;96436.66;;;12.42;97.21
15477;BME280;7840;42.702;23.296;2022-11-13T09:53:09;96438.81;;;12.64;95.72
15477;BME280;7840;42.702;23.296;2022-11-13T09:56:03;96434.28;;;12.94;93.58
15477;BME280;7840;42.702;23.296;2022-11-13T09:58:47;96427.13;;;13.06;91.17
15477;BME280;7840;42.702;23.296;2022-11-13T10:01:19;96431.00;;;13.22;89.61
15477;BME280;7840;42.702;23.296;2022-11-13T10:03:54;96426.75;;;13.45;86.82
15477;BME280;7840;42.702;23.296;2022-11-13T10:06:31;96420.97;;;13.36;85.89
15477;BME280;7840;42.702;23.296;2022-11-13T10:09:07;96432.44;;;13.48;85.99
15477;BME280;7840;42.702;23.296;2022-11-13T10:11:39;96426.75;;;13.45;84.57
15477;BME280;7840;42.702;23.296;2022-11-13T10:14:14;96424.44;;;13.48;84.71
15477;BME280;7840;42.702;23.296;2022-11-13T10:16:46;96423.75;;;13.41;84.60
15477;BME280;7840;42.702;23.296;2022-11-13T10:19:22;96416.56;;;13.30;84.19
15477;BME280;7840;42.702;23.296;2022-11-13T10:21:57;96415.13;;;13.15;85.82
15477;BME280;7840;42.702;23.296;2022-11-13T10:24:28;96422.44;;;13.20;84.81
15477;BME280;7840;42.702;23.296;2022-11-13T10:27:03;96418.38;;;13.18;84.93
15477;BME280;7840;42.702;23.296;2022-11-13T10:29:34;96412.50;;;13.27;84.19
15477;BME280;7840;42.702;23.296;2022-11-13T10:32:15;96410.44;;;13.41;83.57
15477;BME280;7840;42.702;23.296;2022-11-13T10:34:47;96406.16;;;13.40;84.57
15477;BME280;7840;42.702;23.296;2022-11-13T10:37:29;96406.50;;;13.32;82.85
15477;BME280;7840;42.702;23.296;2022-11-13T10:40:01;96401.97;;;13.21;83.42
15477;BME280;7840;42.702;23.296;2022-11-13T10:42:31;96400.53;;;13.06;84.62
15477;BME280;7840;42.702;23.296;2022-11-13T10:45:02;96399.16;;;13.15;83.87
15477;BME280;7840;42.702;23.296;2022-11-13T10:47:31;96392.56;;;13.06;84.77
15477;BME280;7840;42.702;23.296;2022-11-13T10:50:10;96391.78;;;13.18;83.66
15477;BME280;7840;42.702;23.296;2022-11-13T10:52:44;96389.94;;;13.30;81.69
15477;BME280;7840;42.702;23.296;2022-11-13T10:55:20;96393.91;;;13.39;81.72
15477;BME280;7840;42.702;23.296;2022-11-13T10:57:57;96386.69;;;13.51;80.55
15477;BME280;7840;42.702;23.296;2022-11-13T11:00:30;96384.84;;;13.52;80.60
15477;BME280;7840;42.702;23.296;2022-11-13T11:03:01;96387.88;;;13.55;79.50
15477;BME280;7840;42.702;23.296;2022-11-13T11:05:34;96383.25;;;13.39;80.54
15477;BME280;7840;42.702;23.296;2022-11-13T11:08:08;96392.38;;;13.43;80.12
15477;BME280;7840;42.702;23.296;2022-11-13T11:10:38;96385.09;;;13.27;80.48
15477;BME280;7840;42.702;23.296;2022-11-13T11:13:26;96384.88;;;13.40;79.90
15477;BME280;7840;42.702;23.296;2022-11-13T11:15:57;96379.78;;;13.38;81.54
15477;BME280;7840;42.702;23.296;2022-11-13T11:18:35;96377.66;;;13.05;83.84
15477;BME280;7840;42.702;23.296;2022-11-13T11:21:08;96380.97;;;12.89;86.24
15477;BME280;7840;42.702;23.296;2022-11-13T11:23:42;96375.53;;;12.84;86.39
15477;BME280;7840;42.702;23.296;2022-11-13T11:26:15;96378.50;;;12.64;86.21
15477;BME280;7840;42.702;23.296;2022-11-13T11:28:48;96376.63;;;12.65;87.66
15477;BME280;7840;42.702;23.296;2022-11-13T11:31:24;96365.16;;;12.52;88.59
15477;BME280;7840;42.702;23.296;2022-11-13T11:33:59;96367.97;;;12.69;88.16
15477;BME280;7840;42.702;23.296;2022-11-13T11:36:32;96361.41;;;12.72;87.78
15477;BME280;7840;42.702;23.296;2022-11-13T11:39:06;96359.88;;;12.64;88.22
15477;BME280;7840;42.702;23.296;2022-11-13T11:41:43;96361.19;;;12.85;87.17
15477;BME280;7840;42.702;23.296;2022-11-13T11:44:20;96357.97;;;12.95;86.46
15477;BME280;7840;42.702;23.296;2022-11-13T11:46:50;96361.31;;;13.02;84.97
15477;BME280;7840;42.702;23.296;2022-11-13T11:49:19;96358.69;;;13.13;84.48
15477;BME280;7840;42.702;23.296;2022-11-13T11:52:00;96362.13;;;13.02;84.30
15477;BME280;7840;42.702;23.296;2022-11-13T11:54:39;96358.09;;;13.11;83.90
15477;BME280;7840;42.702;23.296;2022-11-13T11:57:22;96356.25;;;13.12;83.98
15477;BME280;7840;42.702;23.296;2022-11-13T12:00:03;96356.34;;;13.17;82.34
15477;BME280;7840;42.702;23.296;2022-11-13T12:05:44;96348.69;;;12.74;86.10
15477;BME280;7840;42.702;23.296;2022-11-13T12:08:27;96353.28;;;12.67;85.63
15477;BME280;7840;42.702;23.296;2022-11-13T12:11:04;96357.59;;;12.79;85.57
15477;BME280;7840;42.702;23.296;2022-11-13T12:13:38;96352.50;;;12.90;84.22
15477;BME280;7840;42.702;23.296;2022-11-13T12:16:17;96351.00;;;12.82;84.03
15477;BME280;7840;42.702;23.296;2022-11-13T12:19:02;96356.78;;;12.79;84.37
15477;BME280;7840;42.702;23.296;2022-11-13T12:21:39;96350.78;;;12.95;84.07
15477;BME280;7840;42.702;23.296;2022-11-13T12:24:36;96344.75;;;12.88;83.23
15477;BME280;7840;42.702;23.296;2022-11-13T12:27:25;96336.22;;;13.09;82.38
15477;BME280;7840;42.702;23.296;2022-11-13T12:30:03;96334.66;;;13.32;81.35
15477;BME280;7840;42.702;23.296;2022-11-13T12:32:50;96338.69;;;13.34;79.27
15477;BME280;7840;42.702;23.296;2022-11-13T12:35:22;96340.56;;;13.34;78.10
15477;BME280;7840;42.702;23.296;2022-11-13T12:38:17;96330.94;;;13.33;78.10
15477;BME280;7840;42.702;23.296;2022-11-13T12:41:12;96330.47;;;13.59;76.20
15477;BME280;7840;42.702;23.296;2022-11-13T12:43:58;96328.09;;;13.86;75.45
15477;BME280;7840;42.702;23.296;2022-11-13T12:46:34;96329.44;;;14.01;73.09
15477;BME280;7840;42.702;23.296;2022-11-13T12:49:15;96337.28;;;14.07;71.66
15477;BME280;7840;42.702;23.296;2022-11-13T12:51:57;96323.84;;;14.02;71.37
15477;BME280;7840;42.702;23.296;2022-11-13T12:54:27;96327.34;;;13.91;72.13
15477;BME280;7840;42.702;23.296;2022-11-13T12:57:15;96323.63;;;14.04;71.90
15477;BME280;7840;42.702;23.296;2022-11-13T12:59:44;96336.69;;;14.05;72.38
15477;BME280;7840;42.702;23.296;2022-11-13T13:02:37;96333.75;;;14.18;72.37
15477;BME280;7840;42.702;23.296;2022-11-13T13:05:20;96329.16;;;14.14;71.43
15477;BME280;7840;42.702;23.296;2022-11-13T13:08:13;96335.00;;;14.28;71.21
15477;BME280;7840;42.702;23.296;2022-11-13T13:11:11;96328.03;;;14.27;71.16
15477;BME280;7840;42.702;23.296;2022-11-13T13:13:48;96317.66;;;14.42;70.50
15477;BME280;7840;42.702;23.296;2022-11-13T13:16:23;96322.06;;;14.48;69.57
15477;BME280;7840;42.702;23.296;2022-11-13T13:19:05;96325.75;;;14.47;70.69
15477;BME280;7840;42.702;23.296;2022-11-13T13:21:41;96319.84;;;14.90;67.87
15477;BME280;7840;42.702;23.296;2022-11-13T13:24:26;96315.94;;;15.15;66.09
15477;BME280;7840;42.702;23.296;2022-11-13T13:27:21;96314.25;;;16.08;62.82
15477;BME280;7840;42.702;23.296;2022-11-13T13:29:51;96316.81;;;16.52;60.08